sensor_id;sensor_type;location;lat;lon;timestamp;pressure;altitude;pressure_sealevel;temperature;humidity
76637;BME280;65532;52.124;5.480;2023-07-28T00:01:30;100432.25;;;17.46;0.00
76637;BME280;65532;52.124;5.480;2023-07-28T00:03:57;100420.47;;;17.46;0.00
76637;BME280;65532;52.124;5.480;2023-07-28T00:06:24;100428.41;;;17.47;0.00
76637;BME280;65532;52.124;5.480;2023-07-28T00:08:50;100422.13;;;17.47;0.00
76637;BME280;65532;52.124;5.480;2023-07-28T00:11:18;100426.47;;;17.48;0.00
76637;BME280;65532;52.124;5.480;2023-07-28T00:13:45;100427.59;;;17.47;0.00
76637;BME280;65532;52.124;5.480;2023-07-28T00:16:11;100438.25;;;17.48;0.00
76637;BME280;65532;52.124;5.480;2023-07-28T00:18:38;100420.72;;;17.49;0.00
76637;BME280;65532;52.124;5.480;2023-07-28T00:21:05;100424.28;;;17.50;0.00
76637;BME280;65532;52.124;5.480;2023-07-28T00:23:31;100423.16;;;17.51;0.00
76637;BME280;65532;52.124;5.480;2023-07-28T00:25:58;100422.09;;;17.52;0.00
76637;BME280;65532;52.124;5.480;2023-07-28T00:28:24;100420.16;;;17.52;0.00
76637;BME280;65532;52.124;5.480;2023-07-28T00:30:52;100421.25;;;17.51;0.00
76637;BME280;65532;52.124;5.480;2023-07-28T00:33:19;100411.94;;;17.52;0.00
76637;BME280;65532;52.124;5.480;2023-07-28T00:35:45;100411.94;;;17.52;0.00
76637;BME280;65532;52.124;5.480;2023-07-28T00:38:12;100416.31;;;17.53;0.00
76637;BME280;65532;52.124;5.480;2023-07-28T00:40:38;100415.22;;;17.54;0.00
76637;BME280;65532;52.124;5.480;2023-07-28T00:43:05;100413.59;;;17.53;0.00
76637;BME280;65532;52.124;5.480;2023-07-28T00:45:33;100414.69;;;17.52;0.00
76637;BME280;65532;52.124;5.480;2023-07-28T00:48:00;100416.31;;;17.53;0.00
76637;BME280;65532;52.124;5.480;2023-07-28T00:50:27;100417.44;;;17.52;0.00
76637;BME280;65532;52.124;5.480;2023-07-28T00:52:55;100421.81;;;17.53;0.00
76637;BME280;65532;52.124;5.480;2023-07-28T00:55:22;100423.44;;;17.54;0.36
76637;BME280;65532;52.124;5.480;2023-07-28T00:57:49;100415.50;;;17.53;1.31
76637;BME280;65532;52.124;5.480;2023-07-28T01:00:16;100413.59;;;17.53;1.68
76637;BME280;65532;52.124;5.480;2023-07-28T01:02:43;100414.69;;;17.52;2.42
76637;BME280;65532;52.124;5.480;2023-07-28T01:05:10;100416.03;;;17.55;3.38
76637;BME280;65532;52.124;5.480;2023-07-28T01:08:06;100421.81;;;17.53;3.47
76637;BME280;65532;52.124;5.480;2023-07-28T01:10:38;100423.72;;;17.53;3.98
76637;BME280;65532;52.124;5.480;2023-07-28T01:13:05;100427.28;;;17.53;4.15
76637;BME280;65532;52.124;5.480;2023-07-28T01:15:32;100417.13;;;17.54;5.45
76637;BME280;65532;52.124;5.480;2023-07-28T01:17:59;100422.63;;;17.54;6.06
76637;BME280;65532;52.124;5.480;2023-07-28T01:20:29;100430.00;;;17.53;6.23
76637;BME280;65532;52.124;5.480;2023-07-28T01:23:09;100431.13;;;17.52;6.37
76637;BME280;65532;52.124;5.480;2023-07-28T01:26:10;100427.81;;;17.50;6.10
76637;BME280;65532;52.124;5.480;2023-07-28T01:28:39;100421.25;;;17.51;6.37
76637;BME280;65532;52.124;5.480;2023-07-28T01:31:07;100423.97;;;17.51;6.71
76637;BME280;65532;52.124;5.480;2023-07-28T01:33:35;100432.19;;;17.51;6.30
76637;BME280;65532;52.124;5.480;2023-07-28T01:36:02;100444.00;;;17.52;6.86
76637;BME280;65532;52.124;5.480;2023-07-28T01:38:29;100449.19;;;17.53;7.56
76637;BME280;65532;52.124;5.480;2023-07-28T01:40:55;100439.03;;;17.54;7.95
76637;BME280;65532;52.124;5.480;2023-07-28T01:43:22;100438.22;;;17.53;7.81
76637;BME280;65532;52.124;5.480;2023-07-28T01:45:48;100437.13;;;17.54;8.20
76637;BME280;65532;52.124;5.480;2023-07-28T01:48:15;100443.69;;;17.53;7.84
76637;BME280;65532;52.124;5.480;2023-07-28T01:50:42;100439.84;;;17.54;8.21
76637;BME280;65532;52.124;5.480;2023-07-28T01:53:09;100436.00;;;17.55;8.17
76637;BME280;65532;52.124;5.480;2023-07-28T01:55:35;100437.94;;;17.55;7.77
76637;BME280;65532;52.124;5.480;2023-07-28T01:58:02;100438.75;;;17.55;7.34
76637;BME280;65532;52.124;5.480;2023-07-28T02:00:29;100445.34;;;17.54;7.86
76637;BME280;65532;52.124;5.480;2023-07-28T02:02:56;100432.75;;;17.53;7.39
76637;BME280;65532;52.124;5.480;2023-07-28T02:05:24;100432.75;;;17.53;6.71
76637;BME280;65532;52.124;5.480;2023-07-28T02:07:51;100435.50;;;17.53;5.81
76637;BME280;65532;52.124;5.480;2023-07-28T02:10:18;100434.38;;;17.54;5.36
76637;BME280;65532;52.124;5.480;2023-07-28T02:12:44;100432.75;;;17.53;4.89
76637;BME280;65532;52.124;5.480;2023-07-28T02:15:11;100442.88;;;17.53;4.31
76637;BME280;65532;52.124;5.480;2023-07-28T02:17:38;100440.41;;;17.51;3.56
76637;BME280;65532;52.124;5.480;2023-07-28T02:20:05;100447.53;;;17.52;2.65
76637;BME280;65532;52.124;5.480;2023-07-28T02:22:32;100445.88;;;17.51;1.54
76637;BME280;65532;52.124;5.480;2023-07-28T02:24:58;100439.59;;;17.51;0.51
76637;BME280;65532;52.124;5.480;2023-07-28T02:27:28;100443.44;;;17.50;0.00
76637;BME280;65532;52.124;5.480;2023-07-28T02:29:55;100431.66;;;17.49;0.00
76637;BME280;65532;52.124;5.480;2023-07-28T02:32:21;100429.22;;;17.48;0.00
76637;BME280;65532;52.124;5.480;2023-07-28T02:34:48;100439.34;;;17.47;0.00
76637;BME280;65532;52.124;5.480;2023-07-28T02:37:15;100437.72;;;17.46;0.00
76637;BME280;65532;52.124;5.480;2023-07-28T02:39:42;100422.94;;;17.47;0.00
76637;BME280;65532;52.124;5.480;2023-07-28T02:42:09;100435.28;;;17.45;0.00
76637;BME280;65532;52.124;5.480;2023-07-28T02:44:35;100447.03;;;17.45;0.00
76637;BME280;65532;52.124;5.480;2023-07-28T02:47:02;100434.47;;;17.44;0.00
76637;BME280;65532;52.124;5.480;2023-07-28T02:49:28;100448.66;;;17.46;0.00
76637;BME280;65532;52.124;5.480;2023-07-28T02:51:55;100446.75;;;17.47;0.00
76637;BME280;65532;52.124;5.480;2023-07-28T02:54:21;100451.41;;;17.46;0.00
76637;BME280;65532;52.124;5.480;2023-07-28T02:56:50;100452.22;;;17.47;0.00
76637;BME280;65532;52.124;5.480;2023-07-28T02:59:17;100448.66;;;17.46;0.00
76637;BME280;65532;52.124;5.480;2023-07-28T03:01:44;100454.16;;;17.46;0.00
76637;BME280;65532;52.124;5.480;2023-07-28T03:04:10;100453.34;;;17.46;0.00
76637;BME280;65532;52.124;5.480;2023-07-28T03:07:03;100460.72;;;17.45;0.00
76637;BME280;65532;52.124;5.480;2023-07-28T03:09:30;100462.88;;;17.48;0.00
76637;BME280;65532;52.124;5.480;2023-07-28T03:11:59;100464.00;;;17.47;0.00
76637;BME280;65532;52.124;5.480;2023-07-28T03:14:26;100460.72;;;17.45;0.00
76637;BME280;65532;52.124;5.480;2023-07-28T03:16:55;100468.94;;;17.45;0.00
76637;BME280;65532;52.124;5.480;2023-07-28T03:19:21;100464.28;;;17.46;0.00
76637;BME280;65532;52.124;5.480;2023-07-28T03:21:48;100459.63;;;17.46;0.00
76637;BME280;65532;52.124;5.480;2023-07-28T03:24:15;100475.75;;;17.48;0.00
76637;BME280;65532;52.124;5.480;2023-07-28T03:26:41;100480.41;;;17.47;0.00
76637;BME280;65532;52.124;5.480;2023-07-28T03:29:08;100483.16;;;17.47;0.00
76637;BME280;65532;52.124;5.480;2023-07-28T03:31:34;100483.97;;;17.48;0.00
76637;BME280;65532;52.124;5.480;2023-07-28T03:34:03;100474.94;;;17.47;0.00
76637;BME280;65532;52.124;5.480;2023-07-28T03:36:30;100481.53;;;17.46;0.00
76637;BME280;65532;52.124;5.480;2023-07-28T03:38:58;100475.75;;;17.48;0.00
76637;BME280;65532;52.124;5.480;2023-07-28T03:41:25;100487.81;;;17.47;0.00
76637;BME280;65532;52.124;5.480;2023-07-28T03:43:51;100491.38;;;17.47;0.00
76637;BME280;65532;52.124;5.480;2023-07-28T03:46:18;100488.63;;;17.47;0.00
76637;BME280;65532;52.124;5.480;2023-07-28T03:48:45;100493.28;;;17.47;0.00
76637;BME280;65532;52.124;5.480;2023-07-28T03:51:11;100491.38;;;17.47;0.00
76637;BME280;65532;52.124;5.480;2023-07-28T03:53:38;100488.63;;;17.47;0.00
76637;BME280;65532;52.124;5.480;2023-07-28T03:56:05;100490.25;;;17.48;0.00
76637;BME280;65532;52.124;5.480;2023-07-28T03:58:32;100489.44;;;17.48;0.00
76637;BME280;65532;52.124;5.480;2023-07-28T04:00:59;100493.00;;;17.48;0.00
76637;BME280;65532;52.124;5.480;2023-07-28T04:03:25;100491.88;;;17.49;0.00
76637;BME280;65532;52.124;5.480;2023-07-28T04:05:52;100494.63;;;17.49;0.00
76637;BME280;65532;52.124;5.480;2023-07-28T04:08:18;100489.16;;;17.49;0.00
76637;BME280;65532;52.124;5.480;2023-07-28T04:10:45;100491.88;;;17.49;0.00
76637;BME280;65532;52.124;5.480;2023-07-28T04:13:12;100489.97;;;17.50;0.00
76637;BME280;65532;52.124;5.480;2023-07-28T04:15:38;100496.53;;;17.49;0.00
76637;BME280;65532;52.124;5.480;2023-07-28T04:18:06;100491.88;;;17.49;0.00
76637;BME280;65532;52.124;5.480;2023-07-28T04:20:33;100490.78;;;17.50;0.00
76637;BME280;65532;52.124;5.480;2023-07-28T04:23:00;100494.34;;;17.51;0.00
76637;BME280;65532;52.124;5.480;2023-07-28T04:25:29;100495.16;;;17.51;0.00
76637;BME280;65532;52.124;5.480;2023-07-28T04:27:56;100493.78;;;17.54;0.00
76637;BME280;65532;52.124;5.480;2023-07-28T04:30:23;100490.75;;;17.55;0.00
76637;BME280;65532;52.124;5.480;2023-07-28T04:32:49;100496.25;;;17.55;0.00
76637;BME280;65532;52.124;5.480;2023-07-28T04:35:19;100502.53;;;17.56;0.00
76637;BME280;65532;52.124;5.480;2023-07-28T04:37:56;100496.25;;;17.55;0.00
76637;BME280;65532;52.124;5.480;2023-07-28T04:40:38;100498.97;;;17.55;0.00
76637;BME280;65532;52.124;5.480;2023-07-28T04:43:05;100504.44;;;17.55;0.00
76637;BME280;65532;52.124;5.480;2023-07-28T04:45:32;100500.09;;;17.54;0.00
76637;BME280;65532;52.124;5.480;2023-07-28T04:48:04;100509.94;;;17.55;0.00
76637;BME280;65532;52.124;5.480;2023-07-28T04:50:31;100506.09;;;17.56;0.00
76637;BME280;65532;52.124;5.480;2023-07-28T04:53:26;100507.19;;;17.55;0.00
76637;BME280;65532;52.124;5.480;2023-07-28T04:56:01;100515.13;;;17.57;0.00
76637;BME280;65532;52.124;5.480;2023-07-28T04:58:29;100515.94;;;17.57;0.00
76637;BME280;65532;52.124;5.480;2023-07-28T05:00:59;100515.94;;;17.57;0.00
76637;BME280;65532;52.124;5.480;2023-07-28T05:03:26;100515.94;;;17.57;0.00
76637;BME280;65532;52.124;5.480;2023-07-28T05:05:59;100512.09;;;17.58;0.00
76637;BME280;65532;52.124;5.480;2023-07-28T05:08:25;100516.75;;;17.58;0.00
76637;BME280;65532;52.124;5.480;2023-07-28T05:10:52;100520.31;;;17.58;0.00
76637;BME280;65532;52.124;5.480;2023-07-28T05:13:19;100515.34;;;17.60;0.00
76637;BME280;65532;52.124;5.480;2023-07-28T05:15:55;100515.88;;;17.62;0.00
76637;BME280;65532;52.124;5.480;2023-07-28T05:18:51;100513.66;;;17.64;0.00
76637;BME280;65532;52.124;5.480;2023-07-28T05:21:36;100522.19;;;17.68;0.00
76637;BME280;65532;52.124;5.480;2023-07-28T05:24:03;100526.28;;;17.71;0.00
76637;BME280;65532;52.124;5.480;2023-07-28T05:26:31;100518.59;;;17.73;0.00
76637;BME280;65532;52.124;5.480;2023-07-28T05:28:58;100519.91;;;17.75;0.00
76637;BME280;65532;52.124;5.480;2023-07-28T05:31:25;100514.44;;;17.75;0.00
76637;BME280;65532;52.124;5.480;2023-07-28T05:33:52;100518.81;;;17.76;0.00
76637;BME280;65532;52.124;5.480;2023-07-28T05:36:20;100510.84;;;17.80;0.00
76637;BME280;65532;52.124;5.480;2023-07-28T05:38:48;100519.84;;;17.85;0.00
76637;BME280;65532;52.124;5.480;2023-07-28T05:41:16;100514.06;;;17.87;0.00
76637;BME280;65532;52.124;5.480;2023-07-28T05:43:44;100509.66;;;17.91;0.00
76637;BME280;65532;52.124;5.480;2023-07-28T05:46:11;100520.03;;;17.94;0.00
76637;BME280;65532;52.124;5.480;2023-07-28T05:48:38;100528.22;;;17.99;0.00
76637;BME280;65532;52.124;5.480;2023-07-28T05:51:04;100525.72;;;18.03;0.00
76637;BME280;65532;52.124;5.480;2023-07-28T05:53:31;100519.34;;;18.07;0.00
76637;BME280;65532;52.124;5.480;2023-07-28T05:56:03;100529.72;;;18.10;0.00
76637;BME280;65532;52.124;5.480;2023-07-28T05:58:31;100526.47;;;18.08;0.00
76637;BME280;65532;52.124;5.480;2023-07-28T06:00:58;100537.44;;;18.08;0.00
76637;BME280;65532;52.124;5.480;2023-07-28T06:03:45;100533.00;;;18.12;0.00
76637;BME280;65532;52.124;5.480;2023-07-28T06:06:18;100543.13;;;18.12;0.00
76637;BME280;65532;52.124;5.480;2023-07-28T06:08:45;100545.34;;;18.15;0.00
76637;BME280;65532;52.124;5.480;2023-07-28T06:11:11;100540.59;;;18.20;0.00
76637;BME280;65532;52.124;5.480;2023-07-28T06:13:38;100544.44;;;18.19;0.00
76637;BME280;65532;52.124;5.480;2023-07-28T06:16:04;100545.28;;;18.20;0.00
76637;BME280;65532;52.124;5.480;2023-07-28T06:18:31;100549.94;;;18.19;0.00
76637;BME280;65532;52.124;5.480;2023-07-28T06:21:07;100549.94;;;18.19;0.00
76637;BME280;65532;52.124;5.480;2023-07-28T06:23:34;100543.88;;;18.22;0.00
76637;BME280;65532;52.124;5.480;2023-07-28T06:26:00;100538.31;;;18.27;0.00
76637;BME280;65532;52.124;5.480;2023-07-28T06:28:27;100543.47;;;18.34;0.00
76637;BME280;65532;52.124;5.480;2023-07-28T06:30:54;100561.50;;;18.40;0.00
76637;BME280;65532;52.124;5.480;2023-07-28T06:33:24;100560.34;;;18.46;3.33
76637;BME280;65532;52.124;5.480;2023-07-28T06:35:51;100552.88;;;18.52;5.46
76637;BME280;65532;52.124;5.480;2023-07-28T06:38:18;100555.56;;;18.57;8.13
76637;BME280;65532;52.124;5.480;2023-07-28T06:40:45;100561.25;;;18.61;12.25
76637;BME280;65532;52.124;5.480;2023-07-28T06:43:12;100567.88;;;18.60;15.73
76637;BME280;65532;52.124;5.480;2023-07-28T06:45:39;100574.16;;;18.65;17.57
76637;BME280;65532;52.124;5.480;2023-07-28T06:48:06;100574.16;;;18.65;20.69
76637;BME280;65532;52.124;5.480;2023-07-28T06:50:33;100590.09;;;18.63;23.28
76637;BME280;65532;52.124;5.480;2023-07-28T06:53:00;100593.38;;;18.60;27.01
76637;BME280;65532;52.124;5.480;2023-07-28T06:55:26;100593.38;;;18.60;27.63
76637;BME280;65532;52.124;5.480;2023-07-28T06:57:53;100589.81;;;18.60;28.78
76637;BME280;65532;52.124;5.480;2023-07-28T07:00:19;100592.53;;;18.60;30.13
76637;BME280;65532;52.124;5.480;2023-07-28T07:02:46;100605.97;;;18.61;30.41
76637;BME280;65532;52.124;5.480;2023-07-28T07:05:13;100595.88;;;18.56;32.05
76637;BME280;65532;52.124;5.480;2023-07-28T07:07:40;100597.22;;;18.59;32.26
76637;BME280;65532;52.124;5.480;2023-07-28T07:10:07;100608.72;;;18.61;32.16
76637;BME280;65532;52.124;5.480;2023-07-28T07:12:36;100600.47;;;18.61;32.50
76637;BME280;65532;52.124;5.480;2023-07-28T07:15:04;100606.56;;;18.63;32.33
76637;BME280;65532;52.124;5.480;2023-07-28T07:17:31;100601.59;;;18.60;33.90
76637;BME280;65532;52.124;5.480;2023-07-28T07:19:57;100601.06;;;18.58;34.64
76637;BME280;65532;52.124;5.480;2023-07-28T07:22:24;100602.41;;;18.61;33.78
76637;BME280;65532;52.124;5.480;2023-07-28T07:24:50;100605.16;;;18.61;34.37
76637;BME280;65532;52.124;5.480;2023-07-28T07:27:17;100611.44;;;18.61;34.23
76637;BME280;65532;52.124;5.480;2023-07-28T07:29:43;100617.53;;;18.63;34.62
76637;BME280;65532;52.124;5.480;2023-07-28T07:32:10;100618.84;;;18.66;35.64
76637;BME280;65532;52.124;5.480;2023-07-28T07:34:37;100624.09;;;18.62;37.74
76637;BME280;65532;52.124;5.480;2023-07-28T07:37:04;100627.38;;;18.64;38.57
76637;BME280;65532;52.124;5.480;2023-07-28T07:39:31;100625.38;;;18.70;37.84
76637;BME280;65532;52.124;5.480;2023-07-28T07:42:00;100625.03;;;18.76;40.28
76637;BME280;65532;52.124;5.480;2023-07-28T07:44:26;100631.22;;;18.87;43.48
76637;BME280;65532;52.124;5.480;2023-07-28T07:46:53;100633.69;;;18.89;47.65
76637;BME280;65532;52.124;5.480;2023-07-28T07:49:19;100635.31;;;18.90;50.17
76637;BME280;65532;52.124;5.480;2023-07-28T07:51:46;100644.56;;;18.99;51.79
76637;BME280;65532;52.124;5.480;2023-07-28T07:54:13;100648.84;;;19.05;53.44
76637;BME280;65532;52.124;5.480;2023-07-28T07:56:42;100649.38;;;19.07;56.93
76637;BME280;65532;52.124;5.480;2023-07-28T07:59:08;100644.41;;;19.09;59.03
76637;BME280;65532;52.124;5.480;2023-07-28T08:01:35;100651.56;;;19.10;60.43
76637;BME280;65532;52.124;5.480;2023-07-28T08:04:02;100659.22;;;19.13;62.16
76637;BME280;65532;52.124;5.480;2023-07-28T08:06:29;100658.38;;;19.12;67.05
76637;BME280;65532;52.124;5.480;2023-07-28T08:08:55;100656.91;;;19.20;69.26
76637;BME280;65532;52.124;5.480;2023-07-28T08:11:23;100659.06;;;19.23;72.40
76637;BME280;65532;52.124;5.480;2023-07-28T08:13:49;100660.50;;;19.39;72.83
76637;BME280;65532;52.124;5.480;2023-07-28T08:16:16;100659.25;;;19.51;77.57
76637;BME280;65532;52.124;5.480;2023-07-28T08:18:42;100664.66;;;19.61;81.38
76637;BME280;65532;52.124;5.480;2023-07-28T08:21:09;100664.44;;;19.76;83.00
76637;BME280;65532;52.124;5.480;2023-07-28T08:23:36;100659.53;;;19.92;84.83
76637;BME280;65532;52.124;5.480;2023-07-28T08:26:02;100662.47;;;20.14;85.90
76637;BME280;65532;52.124;5.480;2023-07-28T08:28:30;100655.16;;;20.42;89.60
76637;BME280;65532;52.124;5.480;2023-07-28T08:30:56;100669.06;;;20.64;90.85
76637;BME280;65532;52.124;5.480;2023-07-28T08:33:24;100662.19;;;20.94;93.01
76637;BME280;65532;52.124;5.480;2023-07-28T08:35:51;100660.13;;;21.14;94.07
76637;BME280;65532;52.124;5.480;2023-07-28T08:38:17;100669.13;;;21.19;94.78
76637;BME280;65532;52.124;5.480;2023-07-28T08:40:44;100678.63;;;21.27;95.09
76637;BME280;65532;52.124;5.480;2023-07-28T08:43:11;100671.09;;;21.33;95.15
76637;BME280;65532;52.124;5.480;2023-07-28T08:45:38;100678.94;;;21.26;95.29
76637;BME280;65532;52.124;5.480;2023-07-28T08:48:05;100683.41;;;21.21;95.11
76637;BME280;65532;52.124;5.480;2023-07-28T08:50:32;100676.78;;;21.22;95.19
76637;BME280;65532;52.124;5.480;2023-07-28T08:52:59;100675.47;;;21.20;95.40
76637;BME280;65532;52.124;5.480;2023-07-28T08:55:26;100685.25;;;21.40;95.53
76637;BME280;65532;52.124;5.480;2023-07-28T08:57:53;100679.22;;;21.65;94.94
76637;BME280;65532;52.124;5.480;2023-07-28T09:00:20;100687.03;;;21.86;94.40
76637;BME280;65532;52.124;5.480;2023-07-28T09:02:49;100684.78;;;21.74;94.23
76637;BME280;65532;52.124;5.480;2023-07-28T09:05:19;100679.59;;;21.72;94.15
76637;BME280;65532;52.124;5.480;2023-07-28T09:07:46;100685.63;;;21.61;94.29
76637;BME280;65532;52.124;5.480;2023-07-28T09:10:14;100690.31;;;21.60;94.72
76637;BME280;65532;52.124;5.480;2023-07-28T09:12:50;100676.47;;;21.65;94.19
76637;BME280;65532;52.124;5.480;2023-07-28T09:15:17;100686.56;;;21.56;94.28
76637;BME280;65532;52.124;5.480;2023-07-28T09:17:44;100685.94;;;21.59;93.99
76637;BME280;65532;52.124;5.480;2023-07-28T09:20:15;100691.94;;;21.75;93.86
76637;BME280;65532;52.124;5.480;2023-07-28T09:22:44;100686.06;;;21.90;93.39
76637;BME280;65532;52.124;5.480;2023-07-28T09:25:15;100691.06;;;22.02;92.80
76637;BME280;65532;52.124;5.480;2023-07-28T09:27:52;100692.94;;;22.29;92.38
76637;BME280;65532;52.124;5.480;2023-07-28T09:30:19;100695.34;;;22.53;92.06
76637;BME280;65532;52.124;5.480;2023-07-28T09:32:53;100693.50;;;22.70;90.95
76637;BME280;65532;52.124;5.480;2023-07-28T09:35:21;100696.94;;;22.98;91.14
76637;BME280;65532;52.124;5.480;2023-07-28T09:37:49;100693.41;;;23.07;88.93
76637;BME280;65532;52.124;5.480;2023-07-28T09:40:19;100696.19;;;23.07;88.59
76637;BME280;65532;52.124;5.480;2023-07-28T09:42:47;100698.31;;;23.18;87.94
76637;BME280;65532;52.124;5.480;2023-07-28T09:45:18;100697.59;;;23.44;87.99
76637;BME280;65532;52.124;5.480;2023-07-28T09:48:05;100697.69;;;23.70;86.07
76637;BME280;65532;52.124;5.480;2023-07-28T09:50:35;100698.25;;;23.49;83.12
76637;BME280;65532;52.124;5.480;2023-07-28T09:53:03;100700.97;;;23.32;84.20
76637;BME280;65532;52.124;5.480;2023-07-28T09:55:30;100701.88;;;23.58;83.20
76637;BME280;65532;52.124;5.480;2023-07-28T09:57:58;100693.63;;;23.76;82.94
76637;BME280;65532;52.124;5.480;2023-07-28T10:00:27;100696.88;;;23.78;81.72
76637;BME280;65532;52.124;5.480;2023-07-28T10:02:56;100688.69;;;23.55;82.35
76637;BME280;65532;52.124;5.480;2023-07-28T10:05:23;100695.31;;;23.37;82.67
76637;BME280;65532;52.124;5.480;2023-07-28T10:07:51;100708.66;;;23.44;83.04
76637;BME280;65532;52.124;5.480;2023-07-28T10:10:18;100688.44;;;23.83;81.45
76637;BME280;65532;52.124;5.480;2023-07-28T10:12:49;100697.53;;;24.27;80.81
76637;BME280;65532;52.124;5.480;2023-07-28T10:15:17;100692.38;;;24.34;78.64
76637;BME280;65532;52.124;5.480;2023-07-28T10:17:53;100696.88;;;24.12;80.21
76637;BME280;65532;52.124;5.480;2023-07-28T10:20:42;100697.53;;;24.44;78.95
76637;BME280;65532;52.124;5.480;2023-07-28T10:23:13;100698.88;;;24.38;78.79
76637;BME280;65532;52.124;5.480;2023-07-28T10:25:42;100694.06;;;24.73;76.56
76637;BME280;65532;52.124;5.480;2023-07-28T10:30:55;100699.94;;;25.27;75.79
76637;BME280;65532;52.124;5.480;2023-07-28T10:33:36;100697.34;;;25.81;74.25
76637;BME280;65532;52.124;5.480;2023-07-28T10:39:12;100700.66;;;25.74;70.14
76637;BME280;65532;52.124;5.480;2023-07-28T10:41:54;100709.47;;;25.76;68.86
76637;BME280;65532;52.124;5.480;2023-07-28T10:44:26;100695.53;;;25.55;69.25
76637;BME280;65532;52.124;5.480;2023-07-28T10:46:53;100698.78;;;25.28;68.59
76637;BME280;65532;52.124;5.480;2023-07-28T10:49:20;100695.97;;;25.36;69.00
76637;BME280;65532;52.124;5.480;2023-07-28T10:51:47;100699.22;;;25.68;69.36
76637;BME280;65532;52.124;5.480;2023-07-28T10:54:13;100694.72;;;25.84;68.65
76637;BME280;65532;52.124;5.480;2023-07-28T10:56:43;100703.53;;;25.27;69.52
76637;BME280;65532;52.124;5.480;2023-07-28T10:59:09;100696.44;;;24.92;70.33
76637;BME280;65532;52.124;5.480;2023-07-28T11:01:38;100712.91;;;25.05;71.83
76637;BME280;65532;52.124;5.480;2023-07-28T11:06:40;100704.16;;;25.24;72.40
76637;BME280;65532;52.124;5.480;2023-07-28T11:09:07;100705.91;;;25.37;72.02
76637;BME280;65532;52.124;5.480;2023-07-28T11:11:39;100704.84;;;25.51;70.83
76637;BME280;65532;52.124;5.480;2023-07-28T11:14:08;100709.94;;;25.49;71.75
76637;BME280;65532;52.124;5.480;2023-07-28T11:16:37;100715.19;;;25.03;72.59
76637;BME280;65532;52.124;5.480;2023-07-28T11:19:10;100718.38;;;24.67;74.04
76637;BME280;65532;52.124;5.480;2023-07-28T11:21:38;100724.56;;;24.56;73.16
76637;BME280;65532;52.124;5.480;2023-07-28T11:24:06;100720.19;;;24.20;75.31
76637;BME280;65532;52.124;5.480;2023-07-28T11:26:34;100728.97;;;24.05;76.03
76637;BME280;65532;52.124;5.480;2023-07-28T11:29:01;100726.66;;;23.89;77.47
76637;BME280;65532;52.124;5.480;2023-07-28T11:31:29;100720.66;;;24.05;78.00
76637;BME280;65532;52.124;5.480;2023-07-28T11:33:56;100727.84;;;24.14;78.19
76637;BME280;65532;52.124;5.480;2023-07-28T11:36:26;100729.59;;;24.10;77.99
76637;BME280;65532;52.124;5.480;2023-07-28T11:38:55;100733.66;;;24.13;77.93
76637;BME280;65532;52.124;5.480;2023-07-28T11:41:22;100725.22;;;24.44;78.17
76637;BME280;65532;52.124;5.480;2023-07-28T11:43:50;100717.47;;;25.10;77.04
76637;BME280;65532;52.124;5.480;2023-07-28T11:46:32;100730.06;;;24.82;74.91
76637;BME280;65532;52.124;5.480;2023-07-28T11:49:16;100715.78;;;24.45;74.77
76637;BME280;65532;52.124;5.480;2023-07-28T11:51:47;100723.13;;;24.15;76.44
76637;BME280;65532;52.124;5.480;2023-07-28T11:54:16;100722.63;;;24.22;76.28
76637;BME280;65532;52.124;5.480;2023-07-28T11:56:46;100716.44;;;24.25;75.94
76637;BME280;65532;52.124;5.480;2023-07-28T11:59:19;100717.88;;;24.13;75.66
76637;BME280;65532;52.124;5.480;2023-07-28T12:01:53;100730.44;;;24.19;75.19
76637;BME280;65532;52.124;5.480;2023-07-28T12:04:25;100720.16;;;24.29;75.77
76637;BME280;65532;52.124;5.480;2023-07-28T12:09:29;100730.63;;;24.32;75.16
76637;BME280;65532;52.124;5.480;2023-07-28T12:11:59;100728.81;;;24.53;75.04
76637;BME280;65532;52.124;5.480;2023-07-28T12:14:35;100727.63;;;24.71;75.63
76637;BME280;65532;52.124;5.480;2023-07-28T12:17:21;100718.44;;;25.44;73.18
76637;BME280;65532;52.124;5.480;2023-07-28T12:22:30;100728.03;;;25.17;71.09
76637;BME280;65532;52.124;5.480;2023-07-28T12:24:57;100720.34;;;25.52;71.28
76637;BME280;65532;52.124;5.480;2023-07-28T12:27:23;100731.66;;;25.76;68.74
76637;BME280;65532;52.124;5.480;2023-07-28T12:29:58;100735.34;;;26.10;68.96
76637;BME280;65532;52.124;5.480;2023-07-28T12:32:29;100735.75;;;26.41;67.95
76637;BME280;65532;52.124;5.480;2023-07-28T12:34:58;100729.88;;;26.34;66.24
76637;BME280;65532;52.124;5.480;2023-07-28T12:37:25;100735.44;;;26.34;67.63
76637;BME280;65532;52.124;5.480;2023-07-28T12:39:55;100728.44;;;26.37;66.94
76637;BME280;65532;52.124;5.480;2023-07-28T12:42:30;100737.09;;;26.35;66.15
76637;BME280;65532;52.124;5.480;2023-07-28T12:45:17;100733.88;;;26.66;64.28
76637;BME280;65532;52.124;5.480;2023-07-28T12:47:46;100721.28;;;26.81;63.55
76637;BME280;65532;52.124;5.480;2023-07-28T12:50:23;100732.50;;;27.05;64.27
76637;BME280;65532;52.124;5.480;2023-07-28T12:52:50;100730.56;;;27.18;62.98
76637;BME280;65532;52.124;5.480;2023-07-28T12:55:20;100731.59;;;27.26;61.44
76637;BME280;65532;52.124;5.480;2023-07-28T12:57:47;100724.16;;;27.30;61.60
76637;BME280;65532;52.124;5.480;2023-07-28T13:00:15;100735.31;;;27.18;61.13
76637;BME280;65532;52.124;5.480;2023-07-28T13:02:45;100728.66;;;26.65;62.09
76637;BME280;65532;52.124;5.480;2023-07-28T13:05:13;100728.00;;;26.68;62.21
76637;BME280;65532;52.124;5.480;2023-07-28T13:07:40;100734.22;;;27.10;61.03
76637;BME280;65532;52.124;5.480;2023-07-28T13:10:10;100733.66;;;27.04;59.00
76637;BME280;65532;52.124;5.480;2023-07-28T13:12:57;100735.84;;;27.11;60.47
76637;BME280;65532;52.124;5.480;2023-07-28T13:15:24;100737.16;;;27.38;59.09
76637;BME280;65532;52.124;5.480;2023-07-28T13:17:50;100728.16;;;27.65;58.27